Time;durP1;ratioP1;P1;durP2;ratioP2;P2;SDS_P1;SDS_P2;PMS_P1;PMS_P2;Temp;Humidity;BMP_temperature;BMP_pressure;BME280_temperature;BME280_humidity;BME280_pressure;Samples;Min_cycle;Max_cycle;Signal;HPM_P1;HPM_P2
2021/12/27 00:01:13;;;;;;;13.18;7.65;;;5.20;99.90;;;;;;4154668;28;20558;-71
2021/12/27 00:03:14;;;;;;;10.07;6.53;;;5.10;99.90;;;;;;4152632;28;20586;-71
2021/12/27 00:05:15;;;;;;;11.88;7.13;;;5.20;99.90;;;;;;4157048;28;20041;-71
2021/12/27 00:07:15;;;;;;;10.77;6.60;;;5.10;99.90;;;;;;4140917;28;20026;-71
2021/12/27 00:09:16;;;;;;;11.13;7.53;;;5.10;99.90;;;;;;4154728;28;20123;-71
2021/12/27 00:11:17;;;;;;;10.98;7.20;;;5.10;99.90;;;;;;4158800;28;20122;-71
2021/12/27 00:13:18;;;;;;;11.93;7.15;;;5.20;99.90;;;;;;4160141;28;20109;-71
2021/12/27 00:15:19;;;;;;;11.20;7.30;;;5.20;99.90;;;;;;4163746;28;20030;-71
2021/12/27 00:17:20;;;;;;;10.50;6.47;;;5.30;99.90;;;;;;4158717;28;20464;-71
2021/12/27 00:19:21;;;;;;;11.90;7.30;;;5.20;99.90;;;;;;4162981;28;20022;-71
2021/12/27 00:21:21;;;;;;;12.10;7.47;;;5.10;99.90;;;;;;4154523;28;20037;-71
2021/12/27 00:23:22;;;;;;;11.32;7.55;;;5.20;99.90;;;;;;4154469;28;20080;-71
2021/12/27 00:25:23;;;;;;;11.15;6.95;;;5.10;99.90;;;;;;4159053;28;20053;-71
2021/12/27 00:27:24;;;;;;;12.30;7.57;;;5.10;99.90;;;;;;4159967;28;20061;-71
2021/12/27 00:29:24;;;;;;;9.57;6.82;;;5.10;99.90;;;;;;4143198;28;20022;-71
2021/12/27 00:31:25;;;;;;;10.75;7.32;;;5.20;99.90;;;;;;4163393;28;20029;-71
2021/12/27 00:33:26;;;;;;;10.43;6.82;;;5.10;99.90;;;;;;4163873;28;20037;-71
2021/12/27 00:35:29;;;;;;;11.00;7.22;;;5.10;99.90;;;;;;4159026;28;20491;-72
2021/12/27 00:37:30;;;;;;;8.65;6.50;;;5.10;99.90;;;;;;4159619;28;20049;-71
2021/12/27 00:39:30;;;;;;;11.48;6.95;;;5.10;99.90;;;;;;4148149;28;20022;-71
2021/12/27 00:41:31;;;;;;;9.70;6.55;;;5.10;99.90;;;;;;4161561;28;20034;-71
2021/12/27 00:43:32;;;;;;;9.65;6.60;;;5.10;99.90;;;;;;4156049;28;20034;-71
2021/12/27 00:45:33;;;;;;;9.93;6.50;;;5.10;99.90;;;;;;4155240;28;20441;-71
2021/12/27 00:47:33;;;;;;;13.13;7.95;;;5.10;99.90;;;;;;4147654;28;20407;-71
2021/12/27 00:49:34;;;;;;;10.95;7.10;;;5.10;99.90;;;;;;4154960;28;20032;-71
2021/12/27 00:51:34;;;;;;;11.13;7.15;;;5.10;99.90;;;;;;4163969;28;20500;-72
2021/12/27 00:53:35;;;;;;;10.63;7.18;;;5.10;99.90;;;;;;4164923;28;20022;-71
2021/12/27 00:55:36;;;;;;;10.20;5.90;;;5.10;99.90;;;;;;4148881;28;20022;-71
2021/12/27 00:57:37;;;;;;;14.10;7.72;;;5.10;99.90;;;;;;4169726;28;20025;-71
2021/12/27 00:59:38;;;;;;;10.73;7.30;;;5.10;99.90;;;;;;4152171;28;20467;-71
2021/12/27 01:01:39;;;;;;;11.10;7.45;;;5.10;99.90;;;;;;4168733;28;20030;-71
2021/12/27 01:03:39;;;;;;;10.90;7.55;;;5.10;99.90;;;;;;4159925;28;20025;-71
2021/12/27 01:05:40;;;;;;;11.68;7.35;;;5.10;99.90;;;;;;4161192;28;20026;-71
2021/12/27 01:07:41;;;;;;;10.40;7.47;;;5.10;99.90;;;;;;4166203;28;20065;-71
2021/12/27 01:12:27;;;;;;;11.02;7.07;;;5.10;99.90;;;;;;4157722;28;20474;-71
2021/12/27 01:14:40;;;;;;;12.68;7.70;;;5.10;99.90;;;;;;4152898;28;20030;-71
2021/12/27 01:16:43;;;;;;;12.85;7.28;;;5.10;99.90;;;;;;4144650;28;20057;-71
2021/12/27 01:18:46;;;;;;;;;;;5.10;99.90;;;;;;4159094;28;20021;-71
2021/12/27 01:20:47;;;;;;;;;;;5.00;99.90;;;;;;4162853;28;19972;-71
2021/12/27 01:22:48;;;;;;;10.25;6.43;;;5.10;99.90;;;;;;4164179;28;19905;-72
2021/12/27 01:24:49;;;;;;;12.63;7.47;;;5.10;99.90;;;;;;4152901;28;20034;-71
2021/12/27 01:26:49;;;;;;;10.85;7.38;;;5.10;99.90;;;;;;4151068;28;20037;-71
2021/12/27 01:28:50;;;;;;;12.95;7.88;;;5.10;99.90;;;;;;4169078;28;20025;-71
2021/12/27 01:30:51;;;;;;;11.43;7.28;;;5.10;99.90;;;;;;4168716;28;20068;-71
2021/12/27 01:32:54;;;;;;;12.35;8.05;;;5.10;99.90;;;;;;4169045;28;20026;-71
2021/12/27 01:34:55;;;;;;;11.45;7.28;;;5.10;99.90;;;;;;4151584;28;20057;-71
2021/12/27 01:36:57;;;;;;;12.40;7.55;;;5.10;99.90;;;;;;4167652;28;20025;-71
2021/12/27 01:38:59;;;;;;;11.10;7.13;;;5.10;99.90;;;;;;4150942;28;20050;-71
2021/12/27 01:41:00;;;;;;;12.25;7.85;;;5.10;99.90;;;;;;4167769;28;20072;-72
2021/12/27 01:43:10;;;;;;;12.32;7.93;;;5.10;99.90;;;;;;4169145;28;20033;-71
2021/12/27 01:45:11;;;;;;;12.07;8.10;;;5.10;99.90;;;;;;4167554;28;20034;-71
2021/12/27 01:47:11;;;;;;;12.60;8.50;;;5.10;99.90;;;;;;4163794;28;20033;-71
2021/12/27 01:49:12;;;;;;;10.35;7.40;;;5.10;99.90;;;;;;4168598;28;20029;-71
2021/12/27 01:51:16;;;;;;;11.57;7.32;;;5.00;99.90;;;;;;4150359;28;20066;-71
2021/12/27 01:53:18;;;;;;;11.25;7.15;;;5.10;99.90;;;;;;4165183;28;20429;-71
2021/12/27 01:55:19;;;;;;;12.80;7.70;;;5.10;99.90;;;;;;4167871;28;20100;-71
2021/12/27 01:57:20;;;;;;;12.55;7.75;;;5.10;99.90;;;;;;4154291;28;20029;-72
2021/12/27 01:59:20;;;;;;;11.75;7.20;;;5.10;99.90;;;;;;4167594;28;20079;-71
2021/12/27 02:01:22;;;;;;;13.35;9.10;;;5.10;99.90;;;;;;4166683;28;20548;-73
2021/12/27 02:03:24;;;;;;;11.90;7.70;;;5.10;99.90;;;;;;4166422;28;20086;-73
2021/12/27 02:05:25;;;;;;;11.65;7.60;;;5.10;99.90;;;;;;4154336;28;20411;-73
2021/12/27 02:07:26;;;;;;;9.35;6.80;;;5.20;99.90;;;;;;4135196;28;20030;-73
2021/12/27 02:09:37;;;;;;;11.73;7.50;;;5.10;99.90;;;;;;4165246;28;20026;-73
2021/12/27 02:11:38;;;;;;;12.07;8.13;;;5.10;99.90;;;;;;4165971;28;20386;-73
2021/12/27 02:13:43;;;;;;;13.10;7.80;;;5.10;99.90;;;;;;4147901;28;20454;-73
2021/12/27 02:15:43;;;;;;;12.52;8.10;;;5.10;99.90;;;;;;4136442;28;20428;-73
2021/12/27 02:17:44;;;;;;;11.88;7.28;;;5.20;99.90;;;;;;4159966;28;20022;-73
2021/12/27 02:19:50;;;;;;;11.00;7.60;;;5.10;99.90;;;;;;4160860;28;20096;-73
2021/12/27 02:21:50;;;;;;;11.90;7.53;;;5.10;99.90;;;;;;4165700;28;20036;-73
2021/12/27 02:23:54;;;;;;;11.35;7.47;;;5.20;99.90;;;;;;4149873;28;20022;-73
2021/12/27 02:25:54;;;;;;;10.70;7.18;;;5.20;99.90;;;;;;4164448;28;20036;-73
2021/12/27 02:27:56;;;;;;;11.23;7.85;;;5.20;99.90;;;;;;4156800;28;20403;-73
2021/12/27 02:29:56;;;;;;;10.75;6.65;;;5.20;99.90;;;;;;4166274;28;20065;-73
2021/12/27 02:31:57;;;;;;;13.25;8.43;;;5.20;99.90;;;;;;4164867;28;20041;-73
2021/12/27 02:33:58;;;;;;;11.05;7.90;;;5.20;99.90;;;;;;4157708;28;20025;-73
2021/12/27 02:36:00;;;;;;;12.90;8.30;;;5.20;99.90;;;;;;4165656;28;20025;-73
2021/12/27 02:38:01;;;;;;;11.63;7.57;;;5.20;99.90;;;;;;4164697;28;20434;-73
2021/12/27 02:40:02;;;;;;;13.75;7.78;;;5.20;99.90;;;;;;4160824;28;20022;-73
2021/12/27 02:42:03;;;;;;;12.63;7.85;;;5.20;99.90;;;;;;4158457;28;20082;-73
2021/12/27 02:44:04;;;;;;;13.10;7.70;;;5.10;99.90;;;;;;4164634;28;20037;-73
2021/12/27 02:46:09;;;;;;;9.98;7.22;;;5.20;99.90;;;;;;4165487;28;20490;-73
2021/12/27 02:48:11;;;;;;;10.85;7.22;;;5.20;99.90;;;;;;4165944;28;20429;-73
2021/12/27 02:50:11;;;;;;;11.80;8.03;;;5.30;99.90;;;;;;4148940;28;20095;-73
2021/12/27 02:52:12;;;;;;;12.90;7.53;;;5.20;99.90;;;;;;4131949;28;20101;-73
2021/12/27 02:54:13;;;;;;;10.32;7.22;;;5.30;99.90;;;;;;4155901;28;20076;-73
2021/12/27 02:56:13;;;;;;;12.77;8.02;;;5.30;99.90;;;;;;4131623;28;20101;-73
2021/12/27 02:58:14;;;;;;;12.20;7.53;;;5.30;99.90;;;;;;4154519;28;20025;-73
2021/12/27 03:00:50;;;;;;;10.88;6.80;;;5.30;99.90;;;;;;4159057;28;20032;-73
2021/12/27 03:02:51;;;;;;;14.10;7.82;;;5.20;99.90;;;;;;4151377;28;20084;-73
2021/12/27 03:04:52;;;;;;;12.88;8.32;;;5.20;99.90;;;;;;4160030;28;20022;-73
2021/12/27 03:06:53;;;;;;;13.50;8.10;;;5.20;99.90;;;;;;4164868;28;20037;-73
2021/12/27 03:08:53;;;;;;;11.23;7.30;;;5.20;99.90;;;;;;4152326;28;20076;-73
2021/12/27 03:10:56;;;;;;;14.75;8.20;;;5.20;99.90;;;;;;4165012;28;20025;-74
2021/12/27 03:12:59;;;;;;;12.77;7.95;;;5.10;99.90;;;;;;4165354;28;20026;-73
2021/12/27 03:14:59;;;;;;;11.30;7.72;;;5.20;99.90;;;;;;4159864;28;20028;-73
2021/12/27 03:17:00;;;;;;;12.05;7.43;;;5.10;99.90;;;;;;4146833;28;20061;-73
2021/12/27 03:19:01;;;;;;;11.68;7.53;;;5.10;99.90;;;;;;4152190;28;20022;-73
2021/12/27 03:21:03;;;;;;;10.25;6.97;;;5.10;99.90;;;;;;4164819;28;20497;-73
2021/12/27 03:23:04;;;;;;;13.82;7.32;;;5.10;99.90;;;;;;4147423;28;20038;-74
2021/12/27 03:25:06;;;;;;;10.93;7.43;;;5.10;99.90;;;;;;4161306;28;20115;-73
2021/12/27 03:27:07;;;;;;;12.95;7.82;;;5.20;99.90;;;;;;4154684;28;20030;-73
2021/12/27 03:29:07;;;;;;;11.70;7.63;;;5.20;99.90;;;;;;4157981;28;20034;-73
2021/12/27 03:31:09;;;;;;;12.95;7.93;;;5.20;99.90;;;;;;4162511;28;20026;-73
2021/12/27 03:33:11;;;;;;;10.73;6.75;;;5.20;99.90;;;;;;4138522;28;20080;-73
2021/12/27 03:35:15;;;;;;;13.05;7.75;;;5.20;99.90;;;;;;4129173;28;20030;-73
2021/12/27 03:37:16;;;;;;;11.02;6.88;;;5.20;99.90;;;;;;4157845;28;20021;-73
2021/12/27 03:39:16;;;;;;;11.82;8.20;;;5.20;99.90;;;;;;4154521;28;20048;-73
2021/12/27 03:41:20;;;;;;;10.77;7.32;;;5.20;99.90;;;;;;4146408;28;20022;-73
2021/12/27 03:43:20;;;;;;;11.18;7.22;;;5.30;99.90;;;;;;4158000;28;20070;-73
2021/12/27 03:45:27;;;;;;;13.65;7.28;;;5.30;99.90;;;;;;4147162;28;20080;-73
2021/12/27 03:47:28;;;;;;;13.68;8.43;;;5.20;99.90;;;;;;4147904;28;20471;-73
2021/12/27 03:49:29;;;;;;;12.60;7.97;;;5.20;99.90;;;;;;4147161;28;20030;-73
2021/12/27 03:51:30;;;;;;;10.85;7.22;;;5.20;99.90;;;;;;4162017;28;20059;-73
2021/12/27 03:53:30;;;;;;;12.90;8.00;;;5.30;99.90;;;;;;4153433;28;20061;-73
2021/12/27 03:55:32;;;;;;;11.88;7.75;;;5.30;99.90;;;;;;4160688;28;20108;-73
2021/12/27 03:57:34;;;;;;;12.95;8.85;;;5.30;99.90;;;;;;4146298;28;20034;-73
2021/12/27 03:59:52;;;;;;;12.30;7.95;;;5.30;99.90;;;;;;4156289;28;20068;-73
2021/12/27 04:01:53;;;;;;;12.70;7.78;;;5.30;99.90;;;;;;4158406;28;20037;-73
2021/12/27 04:03:55;;;;;;;13.77;8.93;;;5.30;99.90;;;;;;4156619;28;20398;-73
2021/12/27 04:05:57;;;;;;;11.70;8.07;;;5.30;99.90;;;;;;4154608;28;20033;-73
2021/12/27 04:08:04;;;;;;;13.25;8.60;;;5.30;99.90;;;;;;4147331;28;20033;-73
2021/12/27 04:10:08;;;;;;;12.93;8.40;;;5.30;99.90;;;;;;4146355;28;20041;-73
2021/12/27 04:12:09;;;;;;;11.25;8.02;;;5.40;99.90;;;;;;4164471;28;20398;-73
2021/12/27 04:14:09;;;;;;;13.38;7.93;;;5.40;99.90;;;;;;4158364;28;20088;-73
2021/12/27 04:16:10;;;;;;;12.63;8.32;;;5.40;99.90;;;;;;4153590;28;20029;-73
2021/12/27 04:18:13;;;;;;;13.15;8.40;;;5.40;99.90;;;;;;4153664;28;20033;-73
2021/12/27 04:20:14;;;;;;;13.90;9.05;;;5.30;99.90;;;;;;4140708;28;20026;-73
2021/12/27 04:22:15;;;;;;;12.00;8.23;;;5.30;99.90;;;;;;4148346;28;20029;-73
2021/12/27 04:24:16;;;;;;;10.65;7.15;;;5.40;99.90;;;;;;4157996;28;20040;-73
2021/12/27 04:26:16;;;;;;;15.10;8.25;;;5.40;99.90;;;;;;4159250;28;20064;-73
2021/12/27 04:28:19;;;;;;;12.85;8.80;;;5.40;99.90;;;;;;4139403;28;20483;-73
2021/12/27 04:30:20;;;;;;;14.23;8.82;;;5.40;99.90;;;;;;4162078;28;20108;-73
2021/12/27 04:32:22;;;;;;;14.00;8.32;;;5.40;99.90;;;;;;4162357;28;20025;-73
2021/12/27 04:34:22;;;;;;;11.05;7.13;;;5.40;99.90;;;;;;4144402;28;20029;-73
2021/12/27 04:36:23;;;;;;;14.50;8.85;;;5.40;99.90;;;;;;4159728;28;20029;-73
2021/12/27 04:38:24;;;;;;;13.10;8.35;;;5.30;99.90;;;;;;4141558;28;20033;-73
2021/12/27 04:40:27;;;;;;;12.05;7.75;;;5.40;99.90;;;;;;4124006;28;21060;-73
2021/12/27 04:42:31;;;;;;;11.57;7.65;;;5.30;99.90;;;;;;4149269;28;20041;-73
2021/12/27 04:44:32;;;;;;;12.25;7.53;;;5.40;99.90;;;;;;4160627;28;20033;-73
2021/12/27 04:46:33;;;;;;;12.27;7.60;;;5.40;99.90;;;;;;4163186;28;20080;-73
2021/12/27 04:48:34;;;;;;;13.45;8.05;;;5.40;99.90;;;;;;4162998;28;20481;-73
2021/12/27 04:50:35;;;;;;;12.30;7.32;;;5.40;99.90;;;;;;4161151;28;20088;-73
2021/12/27 04:52:36;;;;;;;11.88;7.90;;;5.40;99.90;;;;;;4163185;28;20030;-73
2021/12/27 04:54:38;;;;;;;12.95;8.45;;;5.40;99.90;;;;;;4159744;28;20475;-73
2021/12/27 04:56:38;;;;;;;13.45;7.25;;;5.40;99.90;;;;;;4142985;28;20026;-73
2021/12/27 04:58:39;;;;;;;11.38;7.30;;;5.50;99.90;;;;;;4162174;28;20079;-73
2021/12/27 05:00:40;;;;;;;13.70;7.82;;;5.50;99.90;;;;;;4158700;28;20017;-73
2021/12/27 05:02:40;;;;;;;11.98;7.45;;;5.40;99.90;;;;;;4160175;28;20084;-73
2021/12/27 05:04:41;;;;;;;12.80;7.63;;;5.50;99.90;;;;;;4157681;28;20045;-73
2021/12/27 05:06:42;;;;;;;11.93;8.23;;;5.50;99.90;;;;;;4158430;28;20501;-73
2021/12/27 05:08:42;;;;;;;12.95;7.90;;;5.50;99.90;;;;;;4160656;28;20080;-73
2021/12/27 05:10:43;;;;;;;12.15;7.80;;;5.50;99.90;;;;;;4127071;28;20113;-73
2021/12/27 05:12:44;;;;;;;15.00;7.32;;;5.50;99.90;;;;;;4159789;28;20483;-73
2021/12/27 05:14:45;;;;;;;11.00;7.25;;;5.50;99.90;;;;;;4159959;28;20508;-73
2021/12/27 05:16:46;;;;;;;11.30;7.93;;;5.40;99.90;;;;;;4158473;28;20041;-73
2021/12/27 05:18:46;;;;;;;11.50;7.53;;;5.40;99.90;;;;;;4143340;28;20123;-73
2021/12/27 05:20:47;;;;;;;10.85;6.97;;;5.50;99.90;;;;;;4141343;28;20048;-73
2021/12/27 05:22:48;;;;;;;11.20;6.90;;;5.50;99.90;;;;;;4159434;28;20025;-73
2021/12/27 05:24:48;;;;;;;11.82;6.80;;;5.50;99.90;;;;;;4160934;28;20025;-73
2021/12/27 05:26:49;;;;;;;12.13;7.70;;;5.50;99.90;;;;;;4164437;28;20025;-73
2021/12/27 05:28:50;;;;;;;11.18;7.53;;;5.60;99.90;;;;;;4146578;28;20034;-73
2021/12/27 05:30:51;;;;;;;12.18;7.10;;;5.60;99.90;;;;;;4143399;28;20050;-73
2021/12/27 05:32:52;;;;;;;10.85;7.18;;;5.60;99.90;;;;;;4162675;28;20037;-73
2021/12/27 05:34:52;;;;;;;9.88;6.80;;;5.60;99.90;;;;;;4145792;28;20030;-73
2021/12/27 05:36:53;;;;;;;11.23;7.05;;;5.60;99.90;;;;;;4158734;28;20030;-73
2021/12/27 05:38:53;;;;;;;10.65;7.15;;;5.60;99.90;;;;;;4145582;28;20042;-73
2021/12/27 05:40:54;;;;;;;11.45;7.43;;;5.60;99.90;;;;;;4145163;28;20031;-73
2021/12/27 05:42:55;;;;;;;10.85;6.88;;;5.60;99.90;;;;;;4159114;28;20081;-73
2021/12/27 05:44:55;;;;;;;12.07;6.78;;;5.60;99.90;;;;;;4162471;28;20104;-73
2021/12/27 05:46:56;;;;;;;10.63;7.07;;;5.60;99.90;;;;;;4142620;28;20100;-73
2021/12/27 05:48:57;;;;;;;10.57;7.15;;;5.60;99.90;;;;;;4161311;28;20141;-73
2021/12/27 05:50:58;;;;;;;9.50;6.55;;;5.60;99.90;;;;;;4144454;28;20030;-73
2021/12/27 05:52:58;;;;;;;11.00;7.10;;;5.60;99.90;;;;;;4161377;28;20374;-73
2021/12/27 05:54:59;;;;;;;10.60;7.10;;;5.70;99.90;;;;;;4162724;28;20017;-73
2021/12/27 05:57:00;;;;;;;11.43;7.35;;;5.70;99.90;;;;;;4161145;28;20029;-73
2021/12/27 05:59:00;;;;;;;9.95;6.15;;;5.70;99.90;;;;;;4145167;28;20021;-73
2021/12/27 06:01:01;;;;;;;10.55;6.80;;;5.60;99.90;;;;;;4159304;28;20156;-73
2021/12/27 06:03:02;;;;;;;9.77;6.65;;;5.70;99.90;;;;;;4159976;28;20029;-73
2021/12/27 06:05:03;;;;;;;9.20;6.57;;;5.70;99.90;;;;;;4162184;28;20029;-73
2021/12/27 06:07:04;;;;;;;13.93;7.75;;;5.70;99.90;;;;;;4156537;28;20041;-73
2021/12/27 06:09:05;;;;;;;11.68;7.63;;;5.70;99.90;;;;;;4148143;28;20034;-73
2021/12/27 06:11:06;;;;;;;9.68;6.68;;;5.70;99.90;;;;;;4153778;28;20061;-73
2021/12/27 06:13:07;;;;;;;10.55;6.72;;;5.70;99.90;;;;;;4158909;28;20088;-73
2021/12/27 06:15:08;;;;;;;11.20;6.65;;;5.70;99.90;;;;;;4156312;28;20037;-73
2021/12/27 06:17:09;;;;;;;10.95;7.03;;;5.70;99.90;;;;;;4154593;28;20034;-73
2021/12/27 06:19:10;;;;;;;8.85;6.30;;;5.80;99.90;;;;;;4158726;28;20156;-73
2021/12/27 06:21:10;;;;;;;12.75;6.65;;;5.80;99.90;;;;;;4158881;28;20037;-73
2021/12/27 06:23:11;;;;;;;12.35;7.00;;;5.80;99.90;;;;;;4161670;28;20076;-73
2021/12/27 06:25:12;;;;;;;9.93;6.85;;;5.80;99.90;;;;;;4145313;28;20092;-73
2021/12/27 06:27:12;;;;;;;12.32;6.47;;;5.70;99.90;;;;;;4168364;28;20399;-73
2021/12/27 06:29:13;;;;;;;10.10;6.22;;;5.80;99.90;;;;;;4166284;28;20032;-73
2021/12/27 06:31:14;;;;;;;8.38;5.82;;;5.80;99.90;;;;;;4139796;28;20101;-74
2021/12/27 06:33:15;;;;;;;11.10;7.40;;;5.80;99.90;;;;;;4147636;28;20112;-73
2021/12/27 06:35:17;;;;;;;9.88;6.32;;;5.90;99.90;;;;;;4129819;28;20536;-73
2021/12/27 06:37:17;;;;;;;8.95;5.90;;;5.80;99.90;;;;;;4140395;28;20023;-73
2021/12/27 06:39:18;;;;;;;13.00;6.40;;;5.90;99.90;;;;;;4163854;28;20033;-73
2021/12/27 06:41:18;;;;;;;10.02;6.10;;;5.90;99.90;;;;;;4161963;28;20025;-73
2021/12/27 06:43:19;;;;;;;9.13;6.22;;;5.90;99.90;;;;;;4147189;28;20038;-73
2021/12/27 06:45:20;;;;;;;9.73;6.25;;;5.90;99.90;;;;;;4155532;28;20038;-73
2021/12/27 06:47:22;;;;;;;8.55;5.75;;;5.90;99.90;;;;;;4160117;28;20483;-74
2021/12/27 06:49:23;;;;;;;9.70;6.70;;;5.90;99.90;;;;;;4159443;28;20037;-73
2021/12/27 06:51:23;;;;;;;9.25;6.25;;;5.90;99.90;;;;;;4162943;28;20399;-73
2021/12/27 06:53:28;;;;;;;8.82;5.72;;;5.90;99.90;;;;;;4160796;28;20022;-73
2021/12/27 06:55:29;;;;;;;9.82;6.47;;;5.90;99.90;;;;;;4162346;28;20022;-73
2021/12/27 06:57:31;;;;;;;9.55;6.70;;;6.00;99.90;;;;;;4146480;28;20041;-73
2021/12/27 06:59:32;;;;;;;8.75;6.40;;;5.90;99.90;;;;;;4147515;28;20085;-73
2021/12/27 07:01:32;;;;;;;9.65;6.45;;;6.00;99.90;;;;;;4144317;28;20056;-73
2021/12/27 07:03:33;;;;;;;10.07;6.75;;;6.00;99.90;;;;;;4143463;28;20080;-73
2021/12/27 07:05:33;;;;;;;11.32;6.45;;;5.90;99.90;;;;;;4141970;28;20053;-73
2021/12/27 07:07:34;;;;;;;8.90;6.40;;;6.00;99.90;;;;;;4161056;28;20132;-73
2021/12/27 07:09:35;;;;;;;12.70;6.47;;;5.90;99.90;;;;;;4158847;28;20512;-73
2021/12/27 07:11:36;;;;;;;10.05;6.25;;;6.00;99.90;;;;;;4160611;28;20040;-73
2021/12/27 07:13:36;;;;;;;10.02;6.50;;;5.90;99.90;;;;;;4163401;28;20025;-73
2021/12/27 07:15:44;;;;;;;9.63;6.38;;;5.90;99.90;;;;;;4164793;28;20470;-73
2021/12/27 07:18:20;;;;;;;10.18;6.60;;;5.90;99.90;;;;;;4150346;28;20057;-73
2021/12/27 07:20:21;;;;;;;8.05;5.68;;;5.90;99.90;;;;;;4149794;28;20018;-74
2021/12/27 07:22:31;;;;;;;8.80;6.05;;;6.00;99.90;;;;;;4152625;28;20109;-74
2021/12/27 07:24:35;;;;;;;10.15;6.18;;;5.90;99.90;;;;;;4150585;28;20026;-74
2021/12/27 07:26:38;;;;;;;13.02;7.15;;;6.00;99.90;;;;;;4136453;28;20066;-74
2021/12/27 07:28:39;;;;;;;10.35;6.20;;;6.00;99.90;;;;;;4148596;28;20506;-73
2021/12/27 07:30:39;;;;;;;9.15;6.22;;;6.00;99.90;;;;;;4160109;28;20029;-73
2021/12/27 07:32:40;;;;;;;8.95;5.90;;;6.00;99.90;;;;;;4160172;28;20403;-73
2021/12/27 07:34:50;;;;;;;9.68;5.90;;;6.00;99.90;;;;;;4156877;28;20037;-75
2021/12/27 07:36:52;;;;;;;10.18;6.85;;;6.00;99.90;;;;;;4145873;28;20030;-74
2021/12/27 07:38:53;;;;;;;9.98;6.82;;;6.00;99.90;;;;;;4162015;28;20406;-74
2021/12/27 07:40:53;;;;;;;8.43;5.88;;;6.00;99.90;;;;;;4146482;28;20025;-74
2021/12/27 07:42:54;;;;;;;12.10;6.45;;;6.00;99.90;;;;;;4131030;28;20027;-74
2021/12/27 07:44:55;;;;;;;10.45;6.68;;;6.00;99.90;;;;;;4128921;28;20475;-74
2021/12/27 07:46:56;;;;;;;8.65;6.00;;;6.10;99.90;;;;;;4144908;28;20022;-74
2021/12/27 07:48:59;;;;;;;13.88;8.10;;;6.10;99.90;;;;;;4123365;28;20027;-74
2021/12/27 07:51:00;;;;;;;11.10;7.40;;;6.00;99.90;;;;;;4160079;28;20063;-74
2021/12/27 07:53:00;;;;;;;9.68;6.60;;;6.00;99.90;;;;;;4144013;28;20041;-74
2021/12/27 07:55:01;;;;;;;9.75;6.47;;;6.00;99.90;;;;;;4159446;28;20021;-74
2021/12/27 07:57:02;;;;;;;9.95;6.55;;;6.00;99.90;;;;;;4159227;28;20482;-74
2021/12/27 07:59:04;;;;;;;10.30;6.38;;;6.00;99.90;;;;;;4131098;28;20033;-74
2021/12/27 08:01:05;;;;;;;7.88;5.47;;;6.00;99.90;;;;;;4148329;28;20012;-73
2021/12/27 08:03:06;;;;;;;11.82;6.47;;;6.10;99.90;;;;;;4165255;28;20022;-73
2021/12/27 08:05:07;;;;;;;9.07;6.00;;;6.10;99.90;;;;;;4163501;28;20022;-72
2021/12/27 08:07:14;;;;;;;9.65;5.88;;;6.10;99.90;;;;;;4162247;28;20679;-74
2021/12/27 08:09:15;;;;;;;11.18;6.82;;;6.20;99.90;;;;;;4150040;28;20029;-75
2021/12/27 08:11:15;;;;;;;9.02;6.03;;;6.10;99.90;;;;;;4150854;28;20032;-71
2021/12/27 08:13:17;;;;;;;9.63;6.07;;;6.20;99.90;;;;;;4162591;28;20021;-71
2021/12/27 08:15:17;;;;;;;11.07;5.55;;;6.20;99.90;;;;;;4161363;28;20037;-71
2021/12/27 08:17:18;;;;;;;10.77;6.35;;;6.20;99.90;;;;;;4149275;28;20022;-71
2021/12/27 08:19:19;;;;;;;9.38;6.13;;;6.20;99.90;;;;;;4143904;28;20026;-70
2021/12/27 08:21:24;;;;;;;8.80;5.53;;;6.30;99.90;;;;;;4149393;28;20091;-72
2021/12/27 08:23:25;;;;;;;10.90;6.53;;;6.30;99.90;;;;;;4164118;28;20032;-71
2021/12/27 08:25:26;;;;;;;10.40;6.05;;;6.30;99.90;;;;;;4165004;28;20029;-71
2021/12/27 08:27:28;;;;;;;17.90;6.40;;;6.30;99.90;;;;;;4165596;28;20414;-70
2021/12/27 08:29:30;;;;;;;8.35;5.30;;;6.30;99.90;;;;;;4163394;28;20060;-70
2021/12/27 08:31:30;;;;;;;7.43;4.85;;;6.30;99.90;;;;;;4144967;28;20057;-70
2021/12/27 08:33:31;;;;;;;8.20;5.40;;;6.40;99.90;;;;;;4161520;28;20022;-70
2021/12/27 08:35:32;;;;;;;9.85;6.32;;;6.40;99.90;;;;;;4148793;28;20026;-70
2021/12/27 08:37:33;;;;;;;8.68;5.72;;;6.40;99.90;;;;;;4166969;28;20490;-70
2021/12/27 08:39:34;;;;;;;11.23;6.88;;;6.50;99.90;;;;;;4150075;28;20029;-70
2021/12/27 08:41:35;;;;;;;8.77;6.07;;;6.50;99.90;;;;;;4147405;28;20567;-70
2021/12/27 08:43:36;;;;;;;10.23;7.07;;;6.50;99.90;;;;;;4164152;28;20482;-70
2021/12/27 08:45:37;;;;;;;9.25;5.47;;;6.50;99.90;;;;;;4171883;28;20041;-70
2021/12/27 08:47:40;;;;;;;10.23;6.10;;;6.50;99.90;;;;;;4154815;28;20395;-70
2021/12/27 08:49:41;;;;;;;10.23;6.20;;;6.60;99.90;;;;;;4146926;28;20017;-70
2021/12/27 08:51:42;;;;;;;9.68;6.38;;;6.60;99.90;;;;;;4159721;28;20489;-70
2021/12/27 08:53:43;;;;;;;10.40;6.43;;;6.60;99.90;;;;;;4162881;28;20122;-70
2021/12/27 08:55:44;;;;;;;12.35;6.75;;;6.60;99.90;;;;;;4148780;28;20025;-70
2021/12/27 08:57:45;;;;;;;11.50;6.70;;;6.60;99.90;;;;;;4149637;28;20021;-69
2021/12/27 08:59:45;;;;;;;11.38;6.85;;;6.60;99.90;;;;;;4164091;28;20048;-70
2021/12/27 09:01:46;;;;;;;9.30;5.78;;;6.60;99.90;;;;;;4157851;28;20060;-71
2021/12/27 09:03:50;;;;;;;9.68;5.88;;;6.60;99.90;;;;;;4148348;28;20037;-70
2021/12/27 09:05:51;;;;;;;10.38;6.13;;;6.70;99.90;;;;;;4169594;28;20494;-70
2021/12/27 09:07:51;;;;;;;9.90;5.82;;;6.70;99.90;;;;;;4170028;28;20035;-70
2021/12/27 09:09:52;;;;;;;9.98;6.10;;;6.60;99.90;;;;;;4152107;28;20056;-71
2021/12/27 09:11:56;;;;;;;9.68;6.00;;;6.70;99.90;;;;;;4165488;28;20068;-71
2021/12/27 09:13:57;;;;;;;7.40;5.55;;;6.70;99.90;;;;;;4151559;28;20113;-71
2021/12/27 09:16:01;;;;;;;9.07;5.78;;;6.70;99.90;;;;;;4150114;28;20026;-71
2021/12/27 09:18:03;;;;;;;10.50;6.72;;;6.80;99.90;;;;;;4170489;28;20053;-70
2021/12/27 09:20:05;;;;;;;9.75;6.53;;;6.80;99.90;;;;;;4152086;28;20055;-72
2021/12/27 09:22:06;;;;;;;9.27;6.20;;;6.80;99.90;;;;;;4171173;28;20025;-71
2021/12/27 09:24:10;;;;;;;10.15;6.28;;;6.80;99.90;;;;;;4137826;28;20045;-69
2021/12/27 09:26:11;;;;;;;10.23;6.10;;;6.80;99.90;;;;;;4147352;28;20040;-70
2021/12/27 09:28:13;;;;;;;8.00;5.47;;;6.80;99.90;;;;;;4164204;28;20025;-71
2021/12/27 09:30:14;;;;;;;9.10;6.22;;;6.90;99.90;;;;;;4148278;28;20040;-72
2021/12/27 09:32:14;;;;;;;8.38;5.45;;;6.80;99.90;;;;;;4170176;28;20057;-71
2021/12/27 09:34:21;;;;;;;8.10;5.95;;;6.90;99.90;;;;;;4152419;28;20025;-71
2021/12/27 09:36:23;;;;;;;8.13;5.50;;;6.90;99.90;;;;;;4138262;28;20042;-71
2021/12/27 09:38:27;;;;;;;7.65;4.97;;;6.90;99.90;;;;;;4151490;28;20204;-70
2021/12/27 09:40:30;;;;;;;9.35;5.35;;;7.00;99.90;;;;;;4170459;28;20037;-71
2021/12/27 09:42:35;;;;;;;10.85;6.07;;;7.00;99.90;;;;;;4169534;28;20095;-70
2021/12/27 09:44:35;;;;;;;8.27;5.85;;;6.90;99.90;;;;;;4170307;28;20067;-69
2021/12/27 09:46:36;;;;;;;9.85;5.82;;;6.90;99.90;;;;;;4165678;28;20037;-70
2021/12/27 09:48:38;;;;;;;8.27;6.03;;;6.90;99.90;;;;;;4167038;28;20021;-71
2021/12/27 09:50:49;;;;;;;9.77;6.00;;;6.90;99.90;;;;;;4152401;28;20117;-71
2021/12/27 09:52:53;;;;;;;7.72;5.30;;;6.90;99.90;;;;;;4147139;28;20406;-70
2021/12/27 09:54:56;;;;;;;8.70;5.97;;;6.90;99.90;;;;;;4165958;28;20081;-71
2021/12/27 09:57:00;;;;;;;8.20;5.35;;;6.90;99.90;;;;;;4150277;28;20033;-71
2021/12/27 09:59:01;;;;;;;7.45;5.20;;;6.90;99.90;;;;;;4151190;28;20033;-71
2021/12/27 10:01:03;;;;;;;8.43;6.13;;;7.00;99.90;;;;;;4150613;28;20091;-70
2021/12/27 10:03:05;;;;;;;7.60;5.15;;;7.00;99.90;;;;;;4151971;28;20033;-70
2021/12/27 10:05:13;;;;;;;9.45;5.85;;;7.10;99.90;;;;;;4167356;28;20055;-72
2021/12/27 10:07:27;;;;;;;9.25;5.50;;;7.10;99.90;;;;;;4170489;28;20029;-69
2021/12/27 10:09:28;;;;;;;7.55;5.22;;;7.10;99.90;;;;;;4151040;28;20017;-72
2021/12/27 10:11:34;;;;;;;9.07;5.35;;;7.10;99.90;;;;;;4171007;28;20037;-69
2021/12/27 10:13:35;;;;;;;8.30;5.25;;;7.20;99.90;;;;;;4166882;28;20037;-70
2021/12/27 10:15:39;;;;;;;7.03;5.20;;;7.20;99.90;;;;;;4168112;28;20078;-70
2021/12/27 10:17:42;;;;;;;7.18;5.00;;;7.20;99.90;;;;;;4169496;28;20047;-70
2021/12/27 10:19:42;;;;;;;;;;;7.20;99.90;;;;;;4167604;28;20388;-70
2021/12/27 10:21:45;;;;;;;9.15;5.05;;;7.30;99.90;;;;;;4160841;28;19909;-70
2021/12/27 10:23:45;;;;;;;;;;;7.30;99.90;;;;;;4165059;28;20037;-70
2021/12/27 10:25:50;;;;;;;7.95;4.82;;;7.30;99.90;;;;;;4148541;28;19916;-70
2021/12/27 10:27:53;;;;;;;7.22;5.13;;;7.30;99.90;;;;;;4165947;28;20045;-70
2021/12/27 10:29:54;;;;;;;7.28;5.07;;;7.40;99.90;;;;;;4165498;28;20135;-71
2021/12/27 10:32:05;;;;;;;8.43;5.18;;;7.40;99.90;;;;;;4167303;28;20037;-70
2021/12/27 10:34:06;;;;;;;8.07;5.30;;;7.40;99.90;;;;;;4137330;28;20114;-70
2021/12/27 10:36:07;;;;;;;10.75;5.32;;;7.50;99.90;;;;;;4135387;28;20169;-69
2021/12/27 10:38:17;;;;;;;6.53;4.95;;;7.50;99.90;;;;;;4169990;28;21021;-70
2021/12/27 10:40:18;;;;;;;7.90;4.97;;;7.50;99.90;;;;;;4162578;28;20026;-69